Time;durP1;ratioP1;P1;durP2;ratioP2;P2;SDS_P1;SDS_P2;PMS_P1;PMS_P2;Temp;Humidity;BMP_temperature;BMP_pressure;BME280_temperature;BME280_humidity;BME280_pressure;Samples;Min_cycle;Max_cycle;Signal;HPM_P1;HPM_P2
2023/03/01 00:01:00;;;;;;;4.93;2.50;;;-0.20;99.90;;;;;;5068094;28;20044;-72
2023/03/01 00:03:25;;;;;;;4.40;2.58;;;-0.10;99.90;;;;;;5083063;28;20075;-72
2023/03/01 00:05:51;;;;;;;4.03;2.53;;;-0.30;99.90;;;;;;5094258;28;20075;-72
2023/03/01 00:08:17;;;;;;;4.85;2.92;;;-0.30;99.90;;;;;;5076473;28;20044;-72
2023/03/01 00:10:42;;;;;;;3.67;2.55;;;0.00;99.90;;;;;;5089539;28;20032;-73
2023/03/01 00:13:08;;;;;;;4.97;2.40;;;-0.20;99.90;;;;;;5093155;28;20046;-72
2023/03/01 00:15:38;;;;;;;3.83;2.50;;;-0.20;99.90;;;;;;5092253;28;20044;-72
2023/03/01 00:18:04;;;;;;;5.10;2.72;;;-0.30;99.90;;;;;;5076177;28;20039;-72
2023/03/01 00:20:29;;;;;;;5.60;2.90;;;-0.20;99.90;;;;;;5085657;28;20491;-72
2023/03/01 00:22:55;;;;;;;4.30;2.87;;;-0.10;99.90;;;;;;5087514;28;20150;-72
2023/03/01 00:25:21;;;;;;;3.73;2.70;;;-0.10;99.90;;;;;;5085677;28;20300;-72
2023/03/01 00:27:48;;;;;;;4.40;2.90;;;-0.20;99.90;;;;;;5092714;28;20703;-72
2023/03/01 00:30:15;;;;;;;4.32;2.72;;;-0.20;99.90;;;;;;5087055;28;20376;-72
2023/03/01 00:32:40;;;;;;;4.45;2.92;;;-0.10;99.90;;;;;;5088726;28;20096;-72
2023/03/01 00:35:06;;;;;;;4.30;2.67;;;-0.20;99.90;;;;;;5089256;28;20044;-72
2023/03/01 00:37:32;;;;;;;3.78;2.63;;;-0.40;99.90;;;;;;5088078;28;20325;-72
2023/03/01 00:39:57;;;;;;;3.93;2.50;;;-0.20;99.90;;;;;;5093307;28;20039;-73
2023/03/01 00:42:23;;;;;;;3.27;2.47;;;-0.20;99.90;;;;;;5076125;28;20297;-73
2023/03/01 00:44:49;;;;;;;3.40;2.22;;;-0.30;99.90;;;;;;5089498;28;20047;-72
2023/03/01 00:47:14;;;;;;;2.90;2.13;;;-0.30;99.90;;;;;;5093613;28;20565;-72
2023/03/01 00:49:40;;;;;;;2.00;1.53;;;-0.50;99.90;;;;;;5091724;28;20301;-72
2023/03/01 00:52:06;;;;;;;2.57;1.70;;;-0.50;99.90;;;;;;5091530;28;20314;-70
2023/03/01 00:54:31;;;;;;;3.75;2.08;;;-0.40;99.90;;;;;;5093230;28;20031;-72
2023/03/01 00:56:57;;;;;;;4.18;2.45;;;-0.50;99.90;;;;;;5092430;28;20126;-70
2023/03/01 00:59:23;;;;;;;4.45;2.50;;;-0.60;99.90;;;;;;5090949;28;20048;-70
2023/03/01 01:01:49;;;;;;;3.63;2.25;;;-0.60;99.90;;;;;;5068533;28;20570;-71
2023/03/01 01:04:15;;;;;;;3.95;2.47;;;-0.60;99.90;;;;;;5074519;28;20054;-71
2023/03/01 01:06:43;;;;;;;2.42;1.70;;;-0.50;99.90;;;;;;5091868;28;20046;-71
2023/03/01 01:09:18;;;;;;;3.13;2.15;;;-0.70;99.90;;;;;;5091083;28;20317;-71
2023/03/01 01:11:51;;;;;;;3.13;2.05;;;-0.70;99.90;;;;;;5086298;28;20035;-71
2023/03/01 01:14:18;;;;;;;3.10;1.98;;;-0.70;99.90;;;;;;5088606;28;20122;-71
2023/03/01 01:16:44;;;;;;;3.38;2.00;;;-0.50;99.90;;;;;;5071578;28;20039;-71
2023/03/01 01:19:11;;;;;;;3.17;2.17;;;-0.60;99.90;;;;;;5109159;28;20051;-71
2023/03/01 01:21:36;;;;;;;3.08;2.05;;;-0.60;99.90;;;;;;5080396;27;20035;-71
2023/03/01 01:24:04;;;;;;;3.80;2.33;;;-0.50;99.90;;;;;;5096406;28;20051;-71
2023/03/01 01:26:32;;;;;;;3.53;2.35;;;-0.70;99.90;;;;;;5092422;28;20085;-71
2023/03/01 01:28:59;;;;;;;3.00;2.08;;;-0.40;99.90;;;;;;5093656;28;20052;-71
2023/03/01 01:31:26;;;;;;;3.40;2.00;;;-0.70;99.90;;;;;;5062228;28;20044;-71
2023/03/01 01:33:52;;;;;;;3.22;2.05;;;-0.70;99.90;;;;;;5090687;28;20047;-71
2023/03/01 01:36:19;;;;;;;2.80;1.90;;;-0.60;99.90;;;;;;5087812;28;20118;-71
2023/03/01 01:38:44;;;;;;;4.10;2.60;;;-0.80;99.90;;;;;;5093202;28;20051;-71
2023/03/01 01:41:11;;;;;;;5.40;3.47;;;-0.50;99.90;;;;;;5092890;28;20039;-71
2023/03/01 01:43:44;;;;;;;5.25;3.15;;;-0.60;99.90;;;;;;5092181;28;20075;-71
2023/03/01 01:46:30;;;;;;;4.90;3.10;;;-0.40;99.90;;;;;;5081909;28;20044;-71
2023/03/01 01:48:59;;;;;;;4.30;2.75;;;-0.50;99.90;;;;;;5072821;28;20048;-71
2023/03/01 01:51:38;;;;;;;4.35;2.97;;;-0.70;99.90;;;;;;5074897;28;20746;-71
2023/03/01 01:54:18;;;;;;;4.93;3.45;;;-0.80;99.90;;;;;;5093576;28;20040;-71
2023/03/01 01:56:49;;;;;;;3.85;2.42;;;-0.60;99.90;;;;;;5092995;28;20491;-71
2023/03/01 01:59:15;;;;;;;3.45;2.50;;;-0.60;99.90;;;;;;5092139;28;20047;-71
2023/03/01 02:01:41;;;;;;;3.08;2.30;;;-0.60;99.90;;;;;;5050746;28;20376;-71
2023/03/01 02:04:07;;;;;;;6.68;2.50;;;-0.90;99.90;;;;;;5087266;28;20056;-71
2023/03/01 02:06:42;;;;;;;4.03;2.28;;;-0.70;99.90;;;;;;5071996;28;20040;-71
2023/03/01 02:09:13;;;;;;;3.50;2.47;;;-0.90;99.90;;;;;;5097264;28;20044;-71
2023/03/01 02:11:39;;;;;;;2.97;2.20;;;-1.00;99.90;;;;;;5105428;28;20054;-71
2023/03/01 02:14:05;;;;;;;3.70;2.20;;;-0.90;99.90;;;;;;5108046;28;20055;-71
2023/03/01 02:16:32;;;;;;;3.15;2.15;;;-0.90;99.90;;;;;;5090924;28;20039;-71
2023/03/01 02:18:58;;;;;;;2.65;1.98;;;-1.00;99.90;;;;;;5088063;28;20051;-71
2023/03/01 02:21:30;;;;;;;4.25;2.72;;;-0.80;99.90;;;;;;5084920;28;20047;-71
2023/03/01 02:23:57;;;;;;;3.20;1.90;;;-1.10;99.90;;;;;;5090175;28;20118;-70
2023/03/01 02:26:52;;;;;;;2.90;2.08;;;-1.10;99.90;;;;;;5068891;28;20048;-71
2023/03/01 02:29:18;;;;;;;4.75;2.60;;;-1.00;99.90;;;;;;5084278;28;20142;-73
2023/03/01 02:31:44;;;;;;;4.15;2.33;;;-1.00;99.90;;;;;;5107098;28;20429;-71
2023/03/01 02:34:21;;;;;;;2.55;1.80;;;-1.00;99.90;;;;;;5091024;28;20143;-71
2023/03/01 02:36:50;;;;;;;2.83;1.80;;;-0.70;99.90;;;;;;5090999;28;20458;-71
2023/03/01 02:39:31;;;;;;;2.30;1.63;;;-1.10;99.90;;;;;;5089150;28;20051;-71
2023/03/01 02:41:58;;;;;;;1.85;1.25;;;-0.90;99.90;;;;;;5085174;28;20054;-72
2023/03/01 02:44:24;;;;;;;2.00;1.40;;;-1.00;99.90;;;;;;5073279;28;20035;-71
2023/03/01 02:46:52;;;;;;;2.45;1.98;;;-1.10;99.90;;;;;;5091044;28;20126;-71
2023/03/01 02:49:27;;;;;;;2.45;1.30;;;-1.10;99.90;;;;;;5089582;28;20047;-71
2023/03/01 02:52:23;;;;;;;1.17;0.98;;;-0.80;99.90;;;;;;5090149;28;20087;-71
2023/03/01 02:54:57;;;;;;;1.60;1.30;;;-1.10;99.90;;;;;;5090554;28;20490;-71
2023/03/01 02:57:24;;;;;;;1.60;1.20;;;-1.10;99.90;;;;;;5057925;28;20059;-71
2023/03/01 02:59:52;;;;;;;1.50;1.13;;;-0.90;99.90;;;;;;5061935;28;20503;-71
2023/03/01 03:02:38;;;;;;;1.48;1.10;;;-0.90;99.90;;;;;;5045171;28;20045;-71
2023/03/01 03:05:29;;;;;;;1.20;1.02;;;-0.90;99.90;;;;;;5065547;28;20040;-71
2023/03/01 03:07:55;;;;;;;1.13;1.00;;;-1.20;99.90;;;;;;5050162;28;20064;-71
2023/03/01 03:10:34;;;;;;;1.25;0.98;;;-0.90;99.90;;;;;;5066876;28;20119;-71
2023/03/01 03:13:14;;;;;;;1.90;1.40;;;-1.20;99.90;;;;;;5065904;28;20047;-71
2023/03/01 03:15:41;;;;;;;1.33;1.20;;;-1.20;99.90;;;;;;5060077;28;20037;-70
2023/03/01 03:18:10;;;;;;;1.45;1.10;;;-0.90;99.90;;;;;;5051076;28;20135;-70
2023/03/01 03:20:38;;;;;;;1.88;1.23;;;-1.00;99.90;;;;;;5064301;28;20456;-71
2023/03/01 03:23:04;;;;;;;1.60;1.10;;;-1.00;99.90;;;;;;5066663;28;20041;-71
2023/03/01 03:25:30;;;;;;;1.05;0.90;;;-1.40;99.90;;;;;;5052340;28;20568;-71
2023/03/01 03:27:57;;;;;;;1.33;1.10;;;-1.20;99.90;;;;;;5072403;28;20095;-70
2023/03/01 03:30:31;;;;;;;1.73;1.30;;;-1.00;99.90;;;;;;5053218;28;20037;-71
2023/03/01 03:32:58;;;;;;;2.25;1.63;;;-1.40;99.90;;;;;;5067241;28;20047;-71
2023/03/01 03:35:29;;;;;;;1.80;1.40;;;-1.20;99.90;;;;;;5067490;28;20124;-71
2023/03/01 03:38:02;;;;;;;2.30;1.70;;;-1.10;99.90;;;;;;5066583;28;20058;-71
2023/03/01 03:40:34;;;;;;;2.80;2.30;;;-1.00;99.90;;;;;;5070911;28;20059;-71
2023/03/01 03:43:01;;;;;;;2.75;2.05;;;-1.20;99.90;;;;;;5068534;28;20447;-71
2023/03/01 03:45:27;;;;;;;3.05;1.70;;;-1.10;99.90;;;;;;5067992;28;20044;-71
2023/03/01 03:47:53;;;;;;;2.13;1.77;;;-1.30;99.90;;;;;;5051204;28;20059;-70
2023/03/01 03:50:18;;;;;;;1.95;1.40;;;-1.10;99.90;;;;;;5064860;28;20488;-71
2023/03/01 03:52:44;;;;;;;1.85;1.35;;;-1.30;99.90;;;;;;5075046;28;20124;-71
2023/03/01 03:55:12;;;;;;;1.80;1.27;;;-1.50;99.90;;;;;;5073060;28;20060;-70
2023/03/01 03:57:39;;;;;;;1.55;1.20;;;-1.30;99.90;;;;;;5093247;28;20119;-70
2023/03/01 04:00:12;;;;;;;2.58;1.20;;;-1.10;99.90;;;;;;5075399;28;20036;-71
2023/03/01 04:02:42;;;;;;;1.40;1.10;;;-1.30;99.90;;;;;;5091649;28;20458;-70
2023/03/01 04:05:10;;;;;;;1.80;1.30;;;-1.20;99.90;;;;;;5074870;28;20035;-72
2023/03/01 04:07:36;;;;;;;1.77;1.30;;;-1.20;99.90;;;;;;5093278;28;20073;-72
2023/03/01 04:10:06;;;;;;;1.58;1.20;;;-1.20;99.90;;;;;;5094642;28;20063;-72
2023/03/01 04:12:33;;;;;;;1.25;1.00;;;-1.20;99.90;;;;;;5088469;28;20104;-71
2023/03/01 04:15:00;;;;;;;1.80;1.25;;;-1.30;99.90;;;;;;5091183;28;20031;-71
2023/03/01 04:17:26;;;;;;;1.90;1.60;;;-1.20;99.90;;;;;;5091853;28;20079;-71
2023/03/01 04:19:51;;;;;;;3.58;2.58;;;-1.60;99.90;;;;;;5087965;28;20074;-71
2023/03/01 04:22:18;;;;;;;3.00;2.17;;;-1.50;99.90;;;;;;5088098;28;20437;-71
2023/03/01 04:24:46;;;;;;;2.47;1.83;;;-1.30;99.90;;;;;;5093080;28;20048;-71
2023/03/01 04:27:12;;;;;;;2.72;1.90;;;-1.60;99.90;;;;;;5065231;28;20078;-71
2023/03/01 04:29:38;;;;;;;2.90;2.10;;;-1.50;99.90;;;;;;5090870;28;20485;-71
2023/03/01 04:32:04;;;;;;;2.87;2.30;;;-1.20;99.90;;;;;;5068741;28;20309;-71
2023/03/01 04:34:30;;;;;;;;;;;-1.30;99.90;;;;;;5111368;28;20648;-72
2023/03/01 04:36:56;;;;;;;3.45;2.08;;;-1.20;99.90;;;;;;5086867;28;19919;-71
2023/03/01 04:39:21;;;;;;;2.63;2.00;;;-1.20;99.90;;;;;;5092852;28;20455;-71
2023/03/01 04:41:47;;;;;;;2.70;2.28;;;-1.30;99.90;;;;;;5093422;28;20035;-71
2023/03/01 04:44:13;;;;;;;3.50;2.45;;;-1.30;99.90;;;;;;5109872;28;20050;-72
2023/03/01 04:46:39;;;;;;;3.33;2.40;;;-1.50;99.90;;;;;;5072663;28;20047;-71
2023/03/01 04:49:05;;;;;;;2.75;2.05;;;-1.70;99.90;;;;;;5092401;28;20402;-72
2023/03/01 04:51:32;;;;;;;3.15;2.50;;;-1.60;99.90;;;;;;5087949;28;20131;-72
2023/03/01 04:53:58;;;;;;;2.97;2.30;;;-1.70;99.90;;;;;;5092686;28;20051;-72
2023/03/01 04:56:24;;;;;;;1.80;1.52;;;-1.40;99.90;;;;;;5047120;28;20048;-72
2023/03/01 04:58:52;;;;;;;1.92;1.42;;;-1.70;99.90;;;;;;5087113;28;20056;-72
2023/03/01 05:01:20;;;;;;;2.70;1.80;;;-1.70;99.90;;;;;;5067865;28;20044;-72
2023/03/01 05:03:48;;;;;;;2.35;1.70;;;-1.40;99.90;;;;;;5075474;28;20437;-72
2023/03/01 05:06:14;;;;;;;2.80;1.80;;;-1.80;99.90;;;;;;5074166;28;20056;-72
2023/03/01 05:08:41;;;;;;;2.42;1.63;;;-1.90;99.90;;;;;;5072003;28;20035;-72
2023/03/01 05:11:08;;;;;;;1.80;1.27;;;-1.70;99.90;;;;;;5087585;28;20040;-72
2023/03/01 05:13:35;;;;;;;2.63;1.90;;;-1.50;99.90;;;;;;5082120;28;20093;-72
2023/03/01 05:16:02;;;;;;;2.40;1.65;;;-1.60;99.90;;;;;;5092689;28;20044;-72
2023/03/01 05:18:32;;;;;;;2.22;1.65;;;-1.50;99.90;;;;;;5072978;28;20043;-72
2023/03/01 05:21:10;;;;;;;2.47;1.52;;;-1.80;99.90;;;;;;5091387;28;20046;-72
2023/03/01 05:23:37;;;;;;;1.85;1.27;;;-1.80;99.90;;;;;;5091249;28;20082;-71
2023/03/01 05:26:05;;;;;;;2.53;1.48;;;-1.80;99.90;;;;;;5072297;28;20044;-71
2023/03/01 05:28:31;;;;;;;1.83;1.20;;;-1.50;99.90;;;;;;5067840;28;20765;-72
2023/03/01 05:30:57;;;;;;;1.83;1.10;;;-2.00;99.90;;;;;;5069918;28;20047;-72
2023/03/01 05:33:24;;;;;;;1.98;1.35;;;-1.90;99.90;;;;;;5076759;28;20039;-72
2023/03/01 05:35:51;;;;;;;;;;;-1.60;99.90;;;;;;5076603;28;20111;-71
2023/03/01 05:38:17;;;;;;;2.40;1.60;;;-1.60;99.90;;;;;;5089600;28;19926;-71
2023/03/01 05:40:45;;;;;;;2.08;1.60;;;-2.00;99.90;;;;;;5093764;28;20054;-71
2023/03/01 05:43:12;;;;;;;2.85;1.90;;;-2.00;99.90;;;;;;5080949;28;20046;-72
2023/03/01 05:45:40;;;;;;;2.60;2.03;;;-1.60;99.90;;;;;;5057959;28;20062;-72
2023/03/01 05:48:07;;;;;;;3.17;2.10;;;-1.60;99.90;;;;;;5079940;28;20471;-72
2023/03/01 05:50:35;;;;;;;3.10;2.22;;;-1.60;99.90;;;;;;5066538;28;20031;-72
2023/03/01 05:53:05;;;;;;;3.53;2.40;;;-2.00;99.90;;;;;;5106483;28;20115;-72
2023/03/01 05:55:32;;;;;;;3.30;2.20;;;-1.70;99.90;;;;;;5091410;28;20075;-72
2023/03/01 05:58:06;;;;;;;2.60;1.90;;;-2.10;99.90;;;;;;5074797;28;20822;-72
2023/03/01 06:00:33;;;;;;;2.80;2.00;;;-2.10;99.90;;;;;;5091310;28;20056;-72
2023/03/01 06:02:59;;;;;;;;;;;-2.10;99.90;;;;;;5090141;28;20095;-72
2023/03/01 06:05:25;;;;;;;3.38;2.30;;;-2.00;99.90;;;;;;5067651;28;19922;-71
2023/03/01 06:07:52;;;;;;;3.45;2.15;;;-2.10;99.90;;;;;;5075810;28;20446;-72
2023/03/01 06:10:20;;;;;;;2.80;1.90;;;-2.20;99.90;;;;;;5088259;28;20111;-73
2023/03/01 06:12:46;;;;;;;2.45;1.80;;;-1.90;99.90;;;;;;5075462;28;20027;-72
2023/03/01 06:15:13;;;;;;;2.30;1.73;;;-1.90;99.90;;;;;;5091351;28;20053;-72
2023/03/01 06:17:41;;;;;;;1.67;1.27;;;-2.20;99.90;;;;;;5090276;28;20043;-72
2023/03/01 06:20:13;;;;;;;2.30;1.50;;;-1.90;99.90;;;;;;5090414;28;20043;-72
2023/03/01 06:22:40;;;;;;;2.28;1.60;;;-1.90;99.90;;;;;;5086865;28;20039;-72
2023/03/01 06:25:06;;;;;;;;;;;-2.20;99.90;;;;;;5085948;28;20036;-71
2023/03/01 06:27:32;;;;;;;3.30;1.48;;;-2.20;99.90;;;;;;5086250;28;19920;-72
2023/03/01 06:29:58;;;;;;;2.60;1.75;;;-2.40;99.90;;;;;;5086469;28;20169;-71
2023/03/01 06:32:23;;;;;;;2.53;1.55;;;-2.00;99.90;;;;;;5080589;28;20069;-71
2023/03/01 06:34:49;;;;;;;2.33;1.70;;;-2.30;99.90;;;;;;5087910;28;20035;-71
2023/03/01 06:37:15;;;;;;;2.40;1.70;;;-2.20;99.90;;;;;;5086096;28;20071;-71
2023/03/01 06:39:41;;;;;;;2.60;1.60;;;-1.90;99.90;;;;;;5086357;28;20113;-71
2023/03/01 06:42:09;;;;;;;2.13;1.48;;;-2.10;99.90;;;;;;5066248;28;20109;-71
2023/03/01 06:44:35;;;;;;;2.50;1.70;;;-1.90;99.90;;;;;;5078361;28;20413;-72
2023/03/01 06:47:02;;;;;;;2.80;2.00;;;-2.10;99.90;;;;;;5061911;28;20739;-72
2023/03/01 06:49:27;;;;;;;2.50;1.60;;;-1.70;99.90;;;;;;5084200;28;20474;-72
2023/03/01 06:51:53;;;;;;;2.00;1.50;;;-1.70;99.90;;;;;;5075139;28;20040;-71
2023/03/01 06:54:21;;;;;;;2.27;1.40;;;-1.60;99.90;;;;;;5089536;28;20083;-71
2023/03/01 06:56:48;;;;;;;1.63;1.25;;;-1.70;99.90;;;;;;5092842;28;20047;-70
2023/03/01 06:59:14;;;;;;;2.00;1.30;;;-1.60;99.90;;;;;;5081966;28;20059;-71
2023/03/01 07:01:39;;;;;;;1.45;1.15;;;-1.50;99.90;;;;;;5083571;28;20044;-71
2023/03/01 07:04:05;;;;;;;1.55;1.00;;;-1.80;99.90;;;;;;5065508;28;20045;-72
2023/03/01 07:06:34;;;;;;;1.95;1.20;;;-1.80;99.90;;;;;;5050923;28;20054;-71
2023/03/01 07:08:59;;;;;;;1.65;1.20;;;-1.60;99.90;;;;;;5084199;28;20048;-72
2023/03/01 07:11:25;;;;;;;1.27;1.00;;;-1.70;99.90;;;;;;5085812;28;20051;-71
2023/03/01 07:13:51;;;;;;;2.83;1.83;;;-1.60;99.90;;;;;;5083221;28;20305;-71
2023/03/01 07:16:16;;;;;;;2.47;1.70;;;-1.20;99.90;;;;;;5083572;28;20040;-71
2023/03/01 07:18:42;;;;;;;2.03;1.65;;;-1.50;99.90;;;;;;5086558;28;20052;-71
2023/03/01 07:21:10;;;;;;;2.50;1.70;;;-1.30;99.90;;;;;;5086799;28;20123;-71
2023/03/01 07:23:36;;;;;;;2.00;1.60;;;-1.30;99.90;;;;;;5069896;28;20093;-72
2023/03/01 07:26:03;;;;;;;2.40;1.50;;;-0.80;99.90;;;;;;5071047;28;20580;-71
2023/03/01 07:28:28;;;;;;;1.80;1.38;;;-0.80;99.90;;;;;;5093764;28;20801;-71
2023/03/01 07:30:54;;;;;;;1.67;1.30;;;-0.70;99.90;;;;;;5089029;28;20036;-71
2023/03/01 07:33:20;;;;;;;2.72;1.20;;;-0.70;99.90;;;;;;5070625;28;20037;-71
2023/03/01 07:35:46;;;;;;;1.90;1.45;;;-0.70;99.90;;;;;;5088503;28;20032;-72
2023/03/01 07:38:12;;;;;;;1.80;1.38;;;-0.30;99.90;;;;;;5090214;28;20051;-71
2023/03/01 07:40:37;;;;;;;1.60;1.10;;;-0.20;99.90;;;;;;5069159;28;20379;-71
2023/03/01 07:43:03;;;;;;;1.27;0.90;;;-0.10;99.90;;;;;;5084498;28;20304;-70
2023/03/01 07:45:29;;;;;;;1.42;1.10;;;-0.10;99.90;;;;;;5067989;28;20131;-71
2023/03/01 07:47:56;;;;;;;1.50;1.10;;;0.00;99.90;;;;;;5087121;28;20552;-71
2023/03/01 07:50:22;;;;;;;2.00;1.50;;;0.00;99.90;;;;;;5082916;28;20048;-71
2023/03/01 07:52:49;;;;;;;;;;;0.00;99.90;;;;;;5082627;28;20326;-71
2023/03/01 07:55:16;;;;;;;3.05;1.63;;;0.40;99.90;;;;;;5086568;28;20000;-71
2023/03/01 07:57:42;;;;;;;2.28;1.70;;;0.50;99.90;;;;;;5078534;28;20131;-71
2023/03/01 08:00:10;;;;;;;2.42;1.77;;;0.40;99.90;;;;;;5085713;28;20127;-72
2023/03/01 08:02:36;;;;;;;2.67;1.77;;;0.80;99.90;;;;;;5080629;28;20089;-71
2023/03/01 08:05:02;;;;;;;2.37;1.73;;;1.10;99.90;;;;;;5082142;28;20052;-71
2023/03/01 08:07:28;;;;;;;2.85;2.20;;;1.20;99.90;;;;;;5084937;28;20032;-71
2023/03/01 08:09:53;;;;;;;2.53;2.20;;;1.40;99.90;;;;;;5086488;28;20036;-71
2023/03/01 08:12:19;;;;;;;4.63;3.47;;;1.30;99.90;;;;;;5088416;28;20334;-71
2023/03/01 08:14:45;;;;;;;3.97;3.13;;;1.40;99.90;;;;;;5084267;28;20351;-71
2023/03/01 08:17:13;;;;;;;4.28;3.00;;;1.90;99.90;;;;;;5089033;28;20460;-71
2023/03/01 08:19:38;;;;;;;4.22;2.85;;;1.80;99.90;;;;;;5069736;28;20050;-71
2023/03/01 08:22:04;;;;;;;3.43;2.67;;;2.40;99.90;;;;;;5089689;28;20122;-71
2023/03/01 08:24:29;;;;;;;3.40;2.63;;;2.10;99.90;;;;;;5111235;27;20072;-71
2023/03/01 08:26:55;;;;;;;3.43;2.77;;;2.70;99.90;;;;;;5068265;28;20123;-71
2023/03/01 08:29:21;;;;;;;4.22;3.10;;;2.70;99.90;;;;;;5085798;28;20355;-70
2023/03/01 08:31:48;;;;;;;4.13;2.92;;;2.60;99.90;;;;;;5087013;28;20054;-71
2023/03/01 08:34:15;;;;;;;3.90;2.78;;;2.70;99.90;;;;;;5087644;28;20082;-71
2023/03/01 08:36:43;;;;;;;4.10;2.95;;;2.70;99.90;;;;;;5070593;28;20061;-71
2023/03/01 08:39:12;;;;;;;4.28;3.10;;;2.90;99.90;;;;;;5081939;28;20083;-75
2023/03/01 08:41:38;;;;;;;4.65;3.45;;;2.90;99.90;;;;;;5087824;28;20051;-72
2023/03/01 08:44:04;;;;;;;4.22;2.88;;;3.40;99.90;;;;;;5083840;28;20039;-72
2023/03/01 08:46:32;;;;;;;4.13;3.00;;;3.20;99.90;;;;;;5085912;28;20134;-72
2023/03/01 08:48:58;;;;;;;4.10;2.92;;;3.30;99.90;;;;;;5081564;28;20098;-68
2023/03/01 08:51:25;;;;;;;4.30;3.00;;;3.50;99.90;;;;;;5057421;28;20043;-70
2023/03/01 08:53:51;;;;;;;5.70;4.50;;;3.80;99.90;;;;;;5085550;28;20496;-70
2023/03/01 08:56:22;;;;;;;8.65;6.30;;;3.60;99.90;;;;;;5085624;28;20044;-70
2023/03/01 08:58:49;;;;;;;11.27;6.80;;;3.80;99.90;;;;;;5080444;28;20113;-70
2023/03/01 09:01:18;;;;;;;8.32;5.95;;;4.20;99.90;;;;;;5075586;28;20524;-70
2023/03/01 09:03:44;;;;;;;10.07;6.80;;;4.00;99.90;;;;;;5089960;28;20578;-71
2023/03/01 09:06:11;;;;;;;12.30;9.18;;;4.20;99.90;;;;;;5084821;28;20128;-71
2023/03/01 09:08:38;;;;;;;15.93;10.52;;;4.40;99.90;;;;;;5086398;28;20032;-71
2023/03/01 09:11:06;;;;;;;16.17;11.40;;;4.40;99.90;;;;;;5071010;28;20071;-71
2023/03/01 09:13:33;;;;;;;15.23;10.60;;;4.80;99.90;;;;;;5068137;28;20048;-71
2023/03/01 09:16:00;;;;;;;14.73;10.52;;;4.80;99.90;;;;;;5085128;28;20043;-71
2023/03/01 09:18:27;;;;;;;14.65;10.10;;;4.80;99.90;;;;;;5086586;28;20098;-71
2023/03/01 09:21:08;;;;;;;12.57;9.13;;;4.80;99.90;;;;;;5081013;28;20055;-70
2023/03/01 09:23:39;;;;;;;13.93;10.15;;;5.00;99.90;;;;;;5086679;28;20407;-70
2023/03/01 09:26:25;;;;;;;13.68;9.07;;;4.90;99.90;;;;;;5053396;28;20067;-71
2023/03/01 09:28:53;;;;;;;11.25;8.38;;;5.00;99.90;;;;;;5077966;28;20072;-71
2023/03/01 09:31:21;;;;;;;15.30;8.80;;;5.10;99.90;;;;;;5082072;28;20122;-70
2023/03/01 09:33:48;;;;;;;10.18;8.07;;;5.00;99.90;;;;;;5057347;28;20059;-70
2023/03/01 09:36:17;;;;;;;14.52;10.07;;;5.00;99.90;;;;;;5082674;28;20028;-70
2023/03/01 09:38:43;;;;;;;12.40;9.45;;;5.10;99.90;;;;;;5085617;28;20044;-70
2023/03/01 09:41:28;;;;;;;12.88;8.40;;;5.10;99.90;;;;;;5080130;28;20031;-70
2023/03/01 09:44:15;;;;;;;11.82;8.70;;;5.10;99.90;;;;;;5088778;28;20048;-71
2023/03/01 09:46:44;;;;;;;9.30;7.35;;;5.00;99.90;;;;;;5058160;28;20055;-70
2023/03/01 09:49:23;;;;;;;12.60;8.43;;;5.00;99.90;;;;;;5087467;28;20044;-72
2023/03/01 09:51:57;;;;;;;9.75;7.40;;;5.00;99.90;;;;;;5086256;28;20147;-71
2023/03/01 09:54:23;;;;;;;11.63;8.55;;;5.10;99.90;;;;;;5085447;28;20043;-71
2023/03/01 09:57:35;;;;;;;11.27;8.45;;;5.10;99.90;;;;;;5068455;28;20044;-71
2023/03/01 10:00:24;;;;;;;12.18;8.55;;;5.10;99.90;;;;;;5064456;28;20458;-71
2023/03/01 10:03:02;;;;;;;14.30;9.90;;;5.10;99.90;;;;;;5063503;28;20082;-71
2023/03/01 10:05:40;;;;;;;11.13;8.45;;;5.20;99.90;;;;;;5084830;28;20047;-71
2023/03/01 10:08:08;;;;;;;10.43;7.90;;;5.30;99.90;;;;;;5082529;28;20047;-71
2023/03/01 10:10:45;;;;;;;9.90;7.20;;;5.30;99.90;;;;;;5081886;28;20048;-71
2023/03/01 10:13:27;;;;;;;11.25;7.72;;;5.30;99.90;;;;;;5085094;28;20132;-71
2023/03/01 10:16:03;;;;;;;13.82;9.98;;;5.40;99.90;;;;;;5083203;28;20371;-71
2023/03/01 10:18:33;;;;;;;11.30;9.57;;;5.50;99.90;;;;;;5086012;28;20066;-71
2023/03/01 10:21:24;;;;;;;12.88;9.65;;;5.60;99.90;;;;;;5078628;28;20048;-71
2023/03/01 10:23:52;;;;;;;12.60;9.82;;;5.70;99.90;;;;;;5066421;28;20058;-70
2023/03/01 10:26:29;;;;;;;14.75;10.98;;;5.80;99.90;;;;;;5080603;28;20045;-71
2023/03/01 10:29:07;;;;;;;;;;;5.80;99.90;;;;;;5086139;28;20044;-71
2023/03/01 10:31:52;;;;;;;14.07;11.13;;;5.90;99.90;;;;;;5083974;28;19946;-71
2023/03/01 10:34:27;;;;;;;13.88;10.60;;;5.90;99.90;;;;;;5061807;28;20796;-71
2023/03/01 10:36:58;;;;;;;14.20;10.98;;;6.00;99.90;;;;;;5082096;28;20143;-71
2023/03/01 10:39:25;;;;;;;17.17;12.68;;;6.00;99.90;;;;;;5083252;28;20470;-71
2023/03/01 10:41:59;;;;;;;20.60;14.43;;;6.10;99.90;;;;;;5075791;28;20135;-71
2023/03/01 10:44:51;;;;;;;20.40;14.70;;;6.20;99.90;;;;;;5072980;28;20054;-71
2023/03/01 10:47:20;;;;;;;19.10;14.68;;;6.20;99.90;;;;;;5079914;28;20051;-71
2023/03/01 10:50:00;;;;;;;17.17;14.52;;;6.20;95.40;;;;;;5088558;28;20040;-71
2023/03/01 10:52:30;;;;;;;17.63;13.77;;;6.40;95.10;;;;;;5066523;28;20128;-70
2023/03/01 10:55:32;;;;;;;16.25;13.43;;;6.50;97.10;;;;;;5088575;28;20040;-71
2023/03/01 10:58:22;;;;;;;15.73;12.75;;;6.70;95.80;;;;;;5070196;28;20082;-71
2023/03/01 11:00:53;;;;;;;17.63;13.98;;;7.00;95.00;;;;;;5087376;28;20097;-70
2023/03/01 11:03:38;;;;;;;15.70;13.02;;;7.20;94.80;;;;;;5079240;28;20043;-71
2023/03/01 11:06:04;;;;;;;14.68;12.18;;;7.40;95.00;;;;;;5083780;28;20044;-71
2023/03/01 11:08:39;;;;;;;16.60;12.32;;;7.60;94.70;;;;;;5091388;28;20044;-71
2023/03/01 11:11:33;;;;;;;14.23;12.07;;;7.60;91.80;;;;;;5087589;28;20047;-71
2023/03/01 11:14:17;;;;;;;13.60;11.10;;;7.80;89.40;;;;;;5083421;28;20110;-71
2023/03/01 11:16:46;;;;;;;13.05;11.10;;;8.00;78.60;;;;;;5082308;28;20170;-71
2023/03/01 11:19:11;;;;;;;13.25;10.15;;;8.20;74.50;;;;;;5090271;28;20055;-71
2023/03/01 11:22:14;;;;;;;12.27;9.50;;;8.30;72.60;;;;;;5084440;28;20051;-71
2023/03/01 11:24:54;;;;;;;13.07;10.45;;;8.60;77.50;;;;;;5082102;28;20040;-71
2023/03/01 11:27:26;;;;;;;10.05;8.98;;;8.80;60.00;;;;;;5078521;28;20050;-71
2023/03/01 11:30:18;;;;;;;11.80;10.05;;;9.10;50.40;;;;;;5080704;28;20044;-70
2023/03/01 11:33:19;;;;;;;12.88;10.40;;;9.30;52.80;;;;;;5085599;28;20048;-71
2023/03/01 11:35:57;;;;;;;11.00;8.93;;;9.20;35.20;;;;;;5001095;28;20044;-70
2023/03/01 11:38:25;;;;;;;10.77;8.35;;;9.40;21.80;;;;;;5085919;28;20105;-71
2023/03/01 11:40:59;;;;;;;11.57;8.85;;;9.80;22.90;;;;;;5079475;28;20487;-70
2023/03/01 11:43:39;;;;;;;9.63;8.32;;;10.00;17.70;;;;;;5087179;28;20102;-70
2023/03/01 11:46:32;;;;;;;10.18;8.48;;;10.30;29.50;;;;;;5085466;28;20044;-71
2023/03/01 11:49:16;;;;;;;9.25;8.05;;;10.50;10.00;;;;;;5086988;28;20158;-71
2023/03/01 11:52:12;;;;;;;9.18;7.68;;;10.70;1.00;;;;;;5068910;28;20115;-71
2023/03/01 11:54:54;;;;;;;9.82;7.68;;;10.80;1.00;;;;;;5084832;28;20039;-71
2023/03/01 11:57:39;;;;;;;8.10;6.80;;;10.70;1.00;;;;;;5088987;28;20048;-71
2023/03/01 12:00:25;;;;;;;7.70;6.70;;;10.80;1.00;;;;;;5073791;28;20051;-71
2023/03/01 12:03:24;;;;;;;8.50;7.22;;;10.60;1.00;;;;;;5087827;28;20084;-71
2023/03/01 12:06:09;;;;;;;9.80;7.22;;;10.50;1.00;;;;;;5088545;28;20081;-71
2023/03/01 12:08:48;;;;;;;9.38;7.47;;;10.60;1.00;;;;;;5091235;28;20138;-71
2023/03/01 12:11:58;;;;;;;9.98;8.30;;;10.50;1.00;;;;;;5087833;28;20070;-71
2023/03/01 12:14:36;;;;;;;10.27;8.68;;;10.50;1.00;;;;;;5084584;28;21158;-71
2023/03/01 12:17:30;;;;;;;12.75;8.98;;;10.50;1.00;;;;;;5063681;28;20478;-71
2023/03/01 12:20:01;;;;;;;13.88;10.32;;;10.30;1.00;;;;;;5101455;28;20080;-71
2023/03/01 12:22:31;;;;;;;11.55;9.10;;;10.00;1.00;;;;;;5088442;28;20379;-71
2023/03/01 12:25:03;;;;;;;12.32;9.57;;;9.80;1.00;;;;;;5085102;28;20524;-72
2023/03/01 12:27:34;;;;;;;13.30;10.40;;;9.80;1.00;;;;;;5084088;28;20164;-71
2023/03/01 12:30:23;;;;;;;11.38;9.40;;;9.80;1.00;;;;;;5072049;28;20398;-70
2023/03/01 12:33:22;;;;;;;13.10;9.25;;;9.80;1.00;;;;;;5091351;28;20052;-71
2023/03/01 12:36:09;;;;;;;11.13;8.50;;;9.90;1.00;;;;;;5087527;28;20123;-71
2023/03/01 12:38:43;;;;;;;11.80;8.73;;;10.10;1.00;;;;;;5082593;28;20355;-71
2023/03/01 12:41:20;;;;;;;10.13;8.32;;;10.10;1.00;;;;;;5091148;28;20039;-71
2023/03/01 12:44:05;;;;;;;10.32;7.43;;;10.30;1.00;;;;;;5089716;28;20065;-74
2023/03/01 12:46:37;;;;;;;11.85;9.18;;;10.70;1.00;;;;;;5096389;28;20497;-74
2023/03/01 12:49:09;;;;;;;9.90;8.57;;;10.90;1.00;;;;;;5090828;28;20031;-75
2023/03/01 12:51:37;;;;;;;10.48;8.60;;;10.80;1.00;;;;;;5067665;28;20036;-74
2023/03/01 12:54:20;;;;;;;9.75;8.43;;;10.70;1.00;;;;;;5091971;28;20039;-74
2023/03/01 12:56:52;;;;;;;10.00;7.95;;;10.70;1.00;;;;;;5092170;28;20574;-74
2023/03/01 12:59:38;;;;;;;10.80;8.57;;;10.70;1.00;;;;;;5103143;28;20039;-74
2023/03/01 13:02:25;;;;;;;9.93;8.15;;;10.40;1.00;;;;;;5094166;28;20130;-74
2023/03/01 13:04:58;;;;;;;10.25;7.85;;;10.50;1.00;;;;;;5090234;28;20078;-75
2023/03/01 13:07:51;;;;;;;10.88;7.70;;;10.50;1.00;;;;;;5073638;28;20119;-74